createdAt,value
2018-06-05T00:01:00.113Z,72.79
2018-06-05T00:05:54.538Z,72.83
2018-06-05T00:10:49.266Z,72.90
2018-06-05T00:15:43.791Z,72.85
2018-06-05T00:20:38.560Z,72.68
2018-06-05T00:25:32.984Z,73.09
2018-06-05T00:30:27.540Z,73.36
2018-06-05T00:35:21.989Z,73.79
2018-06-05T00:40:16.706Z,73.49
2018-06-05T00:45:11.112Z,73.61
2018-06-05T00:50:05.612Z,73.82
2018-06-05T00:55:00.050Z,74.25
2018-06-05T00:59:54.628Z,73.27
2018-06-05T01:04:49.248Z,73.08
2018-06-05T01:09:43.886Z,73.81
2018-06-05T01:14:38.628Z,73.89
2018-06-05T01:19:33.056Z,73.64
2018-06-05T01:24:27.544Z,73.34
2018-06-05T01:29:21.978Z,73.53
2018-06-05T01:34:16.490Z,73.06
2018-06-05T01:39:10.985Z,73.71
2018-06-05T01:44:05.648Z,73.79
2018-06-05T01:48:59.812Z,73.29
2018-06-05T01:53:54.249Z,72.42
2018-06-05T01:58:48.670Z,72.77
2018-06-05T02:03:43.321Z,73.48
2018-06-05T02:08:37.800Z,73.41
2018-06-05T02:13:32.216Z,72.86
2018-06-05T02:18:26.802Z,72.57
2018-06-05T02:23:21.353Z,72.50
2018-06-05T02:28:15.807Z,72.72
2018-06-05T02:33:10.391Z,72.13
2018-06-05T02:38:04.942Z,71.59
2018-06-05T02:42:59.759Z,72.26
2018-06-05T02:47:54.260Z,72.74
2018-06-05T02:52:48.779Z,72.27
2018-06-05T02:57:43.553Z,72.74
2018-06-05T03:02:37.981Z,73.36
2018-06-05T03:07:32.588Z,73.50
2018-06-05T03:12:27.020Z,73.73
2018-06-05T03:17:21.454Z,72.58
2018-06-05T03:22:15.870Z,72.88
2018-06-05T03:27:10.368Z,71.92
2018-06-05T03:32:04.867Z,71.89
2018-06-05T03:36:59.384Z,73.17
2018-06-05T03:41:53.828Z,74.13
2018-06-05T03:46:48.256Z,74.37
2018-06-05T03:51:42.665Z,73.86
2018-06-05T03:56:37.242Z,74.57
2018-06-05T04:01:31.708Z,74.17
2018-06-05T04:06:26.246Z,74.08
2018-06-05T04:11:20.684Z,71.19
2018-06-05T04:16:15.304Z,68.42
2018-06-05T04:21:09.712Z,64.75
2018-06-05T04:26:04.218Z,60.49
2018-06-05T04:30:59.157Z,59.96
2018-06-05T04:35:53.586Z,58.63
2018-06-05T04:40:48.084Z,55.24
2018-06-05T04:45:42.660Z,52.68
2018-06-05T04:50:37.789Z,50.34
2018-06-05T04:55:32.324Z,48.64
2018-06-05T05:00:26.800Z,47.42
2018-06-05T05:05:21.220Z,47.42
2018-06-05T05:10:15.927Z,47.96
2018-06-05T05:15:10.401Z,48.14
2018-06-05T05:20:05.099Z,46.14
2018-06-05T05:24:59.634Z,44.40
2018-06-05T05:29:54.317Z,46.55
2018-06-05T05:34:48.692Z,44.21
2018-06-05T05:39:43.486Z,41.21
2018-06-05T05:44:37.932Z,39.47
2018-06-05T05:49:32.348Z,40.90
2018-06-05T05:54:26.764Z,39.58
2018-06-05T05:59:21.177Z,38.96
2018-06-05T06:04:15.632Z,39.08
2018-06-05T06:09:10.041Z,39.27
2018-06-05T06:14:04.552Z,41.01
2018-06-05T06:18:59.000Z,42.85
2018-06-05T06:23:53.159Z,43.08
2018-06-05T06:28:47.864Z,43.88
2018-06-05T06:33:42.357Z,45.84
2018-06-05T06:38:36.796Z,46.57
2018-06-05T06:43:31.825Z,48.38
2018-06-05T06:48:26.912Z,49.89
2018-06-05T06:53:21.561Z,50.61
2018-06-05T06:58:16.008Z,50.29
2018-06-05T07:03:12.682Z,51.12
2018-06-05T07:08:07.530Z,50.94
2018-06-05T07:13:02.058Z,49.55
2018-06-05T07:17:56.520Z,49.74
2018-06-05T07:22:50.932Z,47.72
2018-06-05T07:27:45.424Z,46.82
2018-06-05T07:32:40.010Z,48.15
2018-06-05T07:37:34.956Z,48.71
2018-06-05T07:42:29.392Z,46.92
2018-06-05T07:47:24.036Z,51.29
2018-06-05T07:52:18.472Z,50.18
2018-06-05T07:57:13.112Z,48.69
2018-06-05T08:02:07.560Z,48.45
2018-06-05T08:07:02.384Z,48.99
2018-06-05T08:11:57.015Z,49.97
2018-06-05T08:16:51.853Z,50.16
2018-06-05T08:21:46.252Z,49.19
2018-06-05T08:26:51.916Z,47.95
2018-06-05T08:31:48.996Z,47.19
2018-06-05T08:36:43.296Z,47.46
2018-06-05T08:41:38.111Z,47.77
2018-06-05T08:46:33.017Z,47.39
2018-06-05T08:51:28.045Z,46.18
2018-06-05T08:56:22.502Z,45.32
2018-06-05T09:01:17.775Z,47.30
2018-06-05T09:06:12.305Z,48.27
2018-06-05T09:11:06.899Z,47.10
2018-06-05T09:16:01.908Z,46.17
2018-06-05T09:20:56.431Z,46.48
2018-06-05T09:25:51.460Z,47.08
2018-06-05T09:30:46.099Z,47.36
2018-06-05T09:35:45.518Z,48.09
2018-06-05T09:40:40.997Z,48.75
2018-06-05T09:45:37.211Z,48.34
2018-06-05T09:50:34.048Z,48.04
2018-06-05T09:55:29.921Z,50.10
2018-06-05T10:00:31.026Z,50.73
2018-06-05T10:05:26.581Z,51.24
2018-06-05T10:10:21.996Z,49.25
2018-06-05T10:15:17.478Z,48.88
2018-06-05T10:20:14.914Z,47.66
2018-06-05T10:25:15.565Z,46.92
2018-06-05T10:30:12.159Z,47.02
2018-06-05T10:35:07.427Z,47.87
2018-06-05T10:40:02.916Z,46.22
2018-06-05T10:44:58.219Z,44.31
2018-06-05T10:49:53.698Z,44.57
2018-06-05T10:54:50.979Z,44.11
2018-06-05T10:59:46.202Z,43.25
2018-06-05T11:04:43.162Z,43.59
2018-06-05T11:09:38.714Z,44.21
2018-06-05T11:14:33.559Z,43.06
2018-06-05T11:19:29.456Z,43.69
2018-06-05T11:24:24.344Z,44.67
2018-06-05T11:29:20.518Z,42.73
2018-06-05T11:34:15.402Z,41.66
2018-06-05T11:39:10.686Z,42.52
2018-06-05T11:44:14.466Z,41.59
2018-06-05T11:49:09.763Z,39.69
2018-06-05T11:54:04.959Z,38.50
2018-06-05T11:58:59.701Z,38.30
2018-06-05T12:03:55.454Z,37.96
2018-06-05T12:08:50.204Z,37.90
2018-06-05T12:13:46.468Z,38.25
2018-06-05T12:18:42.123Z,37.29
2018-06-05T12:23:37.794Z,38.06
2018-06-05T12:28:32.625Z,36.64
2018-06-05T12:33:27.408Z,36.03
2018-06-05T12:38:22.347Z,36.53
2018-06-05T12:43:17.143Z,36.92
2018-06-05T12:48:15.697Z,36.76
2018-06-05T12:53:12.514Z,37.56
2018-06-05T12:58:07.623Z,37.07
2018-06-05T13:03:02.699Z,37.73
2018-06-05T13:07:58.578Z,37.30
2018-06-05T13:12:56.491Z,37.03
2018-06-05T13:17:51.740Z,38.00
2018-06-05T13:22:46.759Z,38.06
2018-06-05T13:27:41.446Z,39.23
2018-06-05T13:32:37.440Z,38.63
2018-06-05T13:37:32.752Z,37.93
2018-06-05T13:42:27.681Z,37.15
2018-06-05T13:47:22.312Z,36.60
2018-06-05T13:52:16.956Z,37.44
2018-06-05T13:57:11.391Z,36.94
2018-06-05T14:02:07.262Z,35.83
2018-06-05T14:07:01.732Z,36.59
2018-06-05T14:11:56.164Z,36.09
2018-06-05T14:16:58.053Z,36.08
2018-06-05T14:21:52.650Z,35.62
2018-06-05T14:26:47.310Z,35.71
2018-06-05T14:31:41.752Z,37.41
2018-06-05T14:36:36.281Z,36.90
2018-06-05T14:41:30.757Z,34.96
2018-06-05T14:46:25.198Z,36.45
2018-06-05T14:51:19.632Z,36.06
2018-06-05T14:56:14.049Z,35.30
2018-06-05T15:01:08.509Z,36.67
2018-06-05T15:06:03.057Z,36.52
2018-06-05T15:10:57.517Z,34.96
2018-06-05T15:15:51.988Z,34.84
2018-06-05T15:20:46.439Z,34.04
2018-06-05T15:25:43.381Z,33.43
2018-06-05T15:30:37.877Z,31.47
2018-06-05T15:35:32.319Z,32.95
2018-06-05T15:40:27.092Z,33.05
2018-06-05T15:45:21.773Z,33.44
2018-06-05T15:50:16.187Z,32.06
2018-06-05T15:55:10.745Z,32.64
2018-06-05T16:00:06.009Z,32.34
2018-06-05T16:05:01.541Z,32.36
2018-06-05T16:09:55.972Z,32.52
2018-06-05T16:14:50.376Z,34.24
2018-06-05T16:19:44.865Z,33.11
2018-06-05T16:24:39.266Z,33.30
2018-06-05T16:29:34.075Z,33.18
2018-06-05T16:34:28.498Z,34.22
2018-06-05T16:39:22.933Z,35.54
2018-06-05T16:44:17.572Z,35.58
2018-06-05T16:49:11.972Z,35.75
2018-06-05T16:54:06.792Z,36.24
2018-06-05T16:59:01.281Z,35.61
2018-06-05T17:03:55.423Z,36.24
2018-06-05T17:08:49.965Z,36.69
2018-06-05T17:13:44.677Z,36.97
2018-06-05T17:18:40.685Z,36.61
2018-06-05T17:23:35.296Z,36.45
2018-06-05T17:28:30.310Z,37.43
2018-06-05T17:33:24.864Z,38.02
2018-06-05T17:38:19.398Z,37.87
2018-06-05T17:43:13.892Z,38.52
2018-06-05T17:48:08.320Z,37.90
2018-06-05T17:53:02.978Z,37.33
2018-06-05T17:57:57.657Z,37.10
2018-06-05T18:02:52.298Z,38.27
2018-06-05T18:07:46.862Z,37.42
2018-06-05T18:12:41.328Z,37.54
2018-06-05T18:17:35.853Z,37.61
2018-06-05T18:22:30.272Z,38.00
2018-06-05T18:27:24.776Z,37.96
2018-06-05T18:32:20.333Z,37.83
2018-06-05T18:37:15.653Z,38.82
2018-06-05T18:42:10.408Z,38.93
2018-06-05T18:47:05.063Z,39.39
2018-06-05T18:51:59.785Z,39.82
2018-06-05T18:56:54.678Z,39.96
2018-06-05T19:01:49.232Z,40.68
2018-06-05T19:06:43.764Z,41.24
2018-06-05T19:11:38.292Z,41.79
2018-06-05T19:16:32.740Z,42.86
2018-06-05T19:21:27.783Z,42.79
2018-06-05T19:26:22.402Z,43.32
2018-06-05T19:31:16.860Z,43.64
2018-06-05T19:36:11.317Z,44.60
2018-06-05T19:41:05.859Z,44.20
2018-06-05T19:46:00.301Z,44.75
2018-06-05T19:50:54.824Z,45.73
2018-06-05T19:55:49.368Z,45.04
2018-06-05T20:00:43.833Z,45.30
2018-06-05T20:05:38.525Z,44.89
2018-06-05T20:10:32.961Z,45.10
2018-06-05T20:15:27.461Z,44.80
2018-06-05T20:20:22.177Z,44.94
2018-06-05T20:25:16.708Z,45.73
2018-06-05T20:30:11.191Z,45.21
2018-06-05T20:35:05.720Z,44.38
2018-06-05T20:40:00.174Z,45.45
2018-06-05T20:44:54.766Z,45.37
2018-06-05T20:49:49.215Z,45.07
2018-06-05T20:54:47.845Z,45.89
2018-06-05T20:59:42.758Z,45.91
2018-06-05T21:04:37.373Z,45.95
2018-06-05T21:09:31.821Z,45.75
2018-06-05T21:14:26.399Z,46.68
2018-06-05T21:19:20.894Z,47.56
2018-06-05T21:24:15.391Z,47.76
2018-06-05T21:29:09.889Z,48.19
2018-06-05T21:34:04.444Z,49.30
2018-06-05T21:38:58.871Z,49.74
2018-06-05T21:43:53.059Z,50.15
2018-06-05T21:48:48.537Z,49.80
2018-06-05T21:53:43.027Z,49.25
2018-06-05T21:58:37.212Z,49.46
2018-06-05T22:03:31.748Z,48.96
2018-06-05T22:08:26.228Z,49.69
2018-06-05T22:13:20.633Z,50.62
2018-06-05T22:18:15.054Z,51.01
2018-06-05T22:23:09.591Z,51.15
2018-06-05T22:28:04.108Z,51.59
2018-06-05T22:32:58.620Z,51.88
2018-06-05T22:37:53.995Z,52.51
2018-06-05T22:42:48.445Z,53.67
2018-06-05T22:47:42.880Z,54.79
2018-06-05T22:52:37.430Z,56.19
2018-06-05T22:57:31.897Z,55.39
2018-06-05T23:02:26.489Z,55.49
2018-06-05T23:07:21.171Z,56.31
2018-06-05T23:12:15.597Z,58.16
2018-06-05T23:17:10.108Z,57.66
2018-06-05T23:22:07.771Z,58.34
2018-06-05T23:27:02.409Z,58.55
2018-06-05T23:31:56.817Z,59.17
2018-06-05T23:36:51.305Z,58.92
2018-06-05T23:41:46.171Z,58.69
2018-06-05T23:46:40.817Z,59.60
2018-06-05T23:51:35.353Z,60.22
2018-06-05T23:56:29.968Z,60.90
